sensor_id;sensor_type;location;lat;lon;timestamp;pressure;altitude;pressure_sealevel;temperature;humidity
47154;BME280;32907;41.412;2.164;2022-09-06T00:01:10;100507.00;;;28.20;59.50
47154;BME280;32907;41.412;2.164;2022-09-06T00:03:39;100521.38;;;28.13;59.28
47154;BME280;32907;41.412;2.164;2022-09-06T00:06:09;100585.88;;;28.74;59.16
47154;BME280;32907;41.412;2.164;2022-09-06T00:08:38;100645.72;;;29.10;59.41
47154;BME280;32907;41.412;2.164;2022-09-06T00:11:07;100599.69;;;28.74;59.38
47154;BME280;32907;41.412;2.164;2022-09-06T00:13:35;100554.09;;;28.52;59.11
47154;BME280;32907;41.412;2.164;2022-09-06T00:16:15;100486.81;;;28.04;59.02
47154;BME280;32907;41.412;2.164;2022-09-06T00:18:44;100638.59;;;29.09;59.39
47154;BME280;32907;41.412;2.164;2022-09-06T00:23:41;100640.53;;;29.08;59.21
47154;BME280;32907;41.412;2.164;2022-09-06T00:26:11;100582.69;;;28.72;59.13
47154;BME280;32907;41.412;2.164;2022-09-06T00:28:41;100583.84;;;28.58;59.14
47154;BME280;32907;41.412;2.164;2022-09-06T00:31:14;100631.47;;;29.08;59.12
47154;BME280;32907;41.412;2.164;2022-09-06T00:33:44;100619.41;;;29.00;59.32
47154;BME280;32907;41.412;2.164;2022-09-06T00:36:13;100580.03;;;28.63;59.15
47154;BME280;32907;41.412;2.164;2022-09-06T00:38:43;100621.13;;;29.05;59.43
47154;BME280;32907;41.412;2.164;2022-09-06T00:41:14;100508.63;;;28.33;59.32
47154;BME280;32907;41.412;2.164;2022-09-06T00:43:42;100620.78;;;29.06;58.90
47154;BME280;32907;41.412;2.164;2022-09-06T00:46:17;100621.56;;;29.07;58.75
47154;BME280;32907;41.412;2.164;2022-09-06T00:48:49;100504.38;;;28.36;59.22
47154;BME280;32907;41.412;2.164;2022-09-06T00:51:21;100575.16;;;28.84;59.14
47154;BME280;32907;41.412;2.164;2022-09-06T00:53:53;100606.53;;;29.04;58.94
47154;BME280;32907;41.412;2.164;2022-09-06T00:56:21;100468.69;;;28.03;58.93
47154;BME280;32907;41.412;2.164;2022-09-06T00:58:53;100547.03;;;28.66;59.01
47154;BME280;32907;41.412;2.164;2022-09-06T01:01:22;100571.28;;;28.73;58.96
47154;BME280;32907;41.412;2.164;2022-09-06T01:03:53;100559.69;;;28.67;59.08
47154;BME280;32907;41.412;2.164;2022-09-06T01:12:22;100582.88;;;28.91;59.36
47154;BME280;32907;41.412;2.164;2022-09-06T01:28:42;100595.81;;;29.03;59.42
47154;BME280;32907;41.412;2.164;2022-09-06T01:36:59;100595.00;;;29.02;59.40
47154;BME280;32907;41.412;2.164;2022-09-06T01:39:39;100596.16;;;29.01;59.35
47154;BME280;32907;41.412;2.164;2022-09-06T01:42:18;100596.16;;;29.01;59.34
47154;BME280;32907;41.412;2.164;2022-09-06T01:44:56;100603.66;;;29.01;59.26
47154;BME280;32907;41.412;2.164;2022-09-06T01:50:43;100608.38;;;29.00;59.16
47154;BME280;32907;41.412;2.164;2022-09-06T02:01:37;100570.88;;;28.87;59.31
47154;BME280;32907;41.412;2.164;2022-09-06T02:04:21;100589.03;;;29.00;59.31
47154;BME280;32907;41.412;2.164;2022-09-06T02:06:57;100427.47;;;27.94;59.23
47154;BME280;32907;41.412;2.164;2022-09-06T02:09:34;100558.53;;;28.68;59.28
47154;BME280;32907;41.412;2.164;2022-09-06T02:12:04;100457.59;;;28.15;59.33
47154;BME280;32907;41.412;2.164;2022-09-06T02:14:47;100588.94;;;28.96;59.38
47154;BME280;32907;41.412;2.164;2022-09-06T02:17:19;100519.03;;;28.52;59.21
47154;BME280;32907;41.412;2.164;2022-09-06T02:19:54;100553.50;;;28.86;59.19
47154;BME280;32907;41.412;2.164;2022-09-06T02:22:25;100565.34;;;28.99;59.02
47154;BME280;32907;41.412;2.164;2022-09-06T02:24:57;100471.28;;;28.24;59.34
47154;BME280;32907;41.412;2.164;2022-09-06T02:27:26;100311.84;;;27.21;59.78
47154;BME280;32907;41.412;2.164;2022-09-06T02:29:59;100573.63;;;28.99;59.63
47154;BME280;32907;41.412;2.164;2022-09-06T02:32:32;100568.13;;;28.99;59.56
47154;BME280;32907;41.412;2.164;2022-09-06T02:35:07;100568.56;;;29.01;59.65
47154;BME280;32907;41.412;2.164;2022-09-06T02:37:37;100499.00;;;28.55;59.21
47154;BME280;32907;41.412;2.164;2022-09-06T02:40:06;100461.63;;;28.30;59.25
47154;BME280;32907;41.412;2.164;2022-09-06T02:42:35;100405.50;;;27.98;59.28
47154;BME280;32907;41.412;2.164;2022-09-06T02:45:03;100507.84;;;28.61;59.60
47154;BME280;32907;41.412;2.164;2022-09-06T02:47:33;100563.41;;;29.00;59.36
47154;BME280;32907;41.412;2.164;2022-09-06T02:50:00;100436.75;;;28.02;59.33
47154;BME280;32907;41.412;2.164;2022-09-06T02:52:28;100487.81;;;28.36;58.97
47154;BME280;32907;41.412;2.164;2022-09-06T02:54:56;100416.31;;;28.03;58.74
47154;BME280;32907;41.412;2.164;2022-09-06T02:57:24;100510.97;;;28.59;58.79
47154;BME280;32907;41.412;2.164;2022-09-06T02:59:52;100552.81;;;28.89;58.43
47154;BME280;32907;41.412;2.164;2022-09-06T03:02:20;100568.81;;;28.96;58.74
47154;BME280;32907;41.412;2.164;2022-09-06T03:04:49;100568.00;;;28.95;58.87
47154;BME280;32907;41.412;2.164;2022-09-06T03:07:16;100564.44;;;28.95;58.50
47154;BME280;32907;41.412;2.164;2022-09-06T03:09:44;100560.06;;;28.94;58.51
47154;BME280;32907;41.412;2.164;2022-09-06T03:12:12;100547.09;;;28.82;58.82
47154;BME280;32907;41.412;2.164;2022-09-06T03:14:44;100569.50;;;28.93;59.07
47154;BME280;32907;41.412;2.164;2022-09-06T03:17:12;100457.72;;;28.19;58.63
47154;BME280;32907;41.412;2.164;2022-09-06T03:19:39;100550.19;;;28.93;59.14
47154;BME280;32907;41.412;2.164;2022-09-06T03:22:07;100442.88;;;28.23;58.77
47154;BME280;32907;41.412;2.164;2022-09-06T03:24:35;100438.78;;;28.17;59.32
47154;BME280;32907;41.412;2.164;2022-09-06T03:27:03;100534.47;;;28.81;59.27
47154;BME280;32907;41.412;2.164;2022-09-06T03:29:31;100536.16;;;28.86;58.99
47154;BME280;32907;41.412;2.164;2022-09-06T03:32:01;100538.22;;;28.89;59.29
47154;BME280;32907;41.412;2.164;2022-09-06T03:34:29;100400.56;;;28.03;58.80
47154;BME280;32907;41.412;2.164;2022-09-06T03:36:57;100480.75;;;28.51;59.08
47154;BME280;32907;41.412;2.164;2022-09-06T03:39:25;100522.88;;;28.76;59.02
47154;BME280;32907;41.412;2.164;2022-09-06T03:41:53;100532.06;;;28.80;59.06
47154;BME280;32907;41.412;2.164;2022-09-06T03:44:21;100518.94;;;28.77;58.86
47154;BME280;32907;41.412;2.164;2022-09-06T03:46:49;100486.72;;;28.53;58.95
47154;BME280;32907;41.412;2.164;2022-09-06T03:49:19;100499.72;;;28.52;58.79
47154;BME280;32907;41.412;2.164;2022-09-06T03:51:47;100534.94;;;28.71;59.06
47154;BME280;32907;41.412;2.164;2022-09-06T03:54:14;100549.75;;;28.91;58.90
47154;BME280;32907;41.412;2.164;2022-09-06T03:56:42;100517.59;;;28.70;58.72
47154;BME280;32907;41.412;2.164;2022-09-06T03:59:10;100479.59;;;28.52;59.06
47154;BME280;32907;41.412;2.164;2022-09-06T04:01:38;100467.13;;;28.42;59.05
47154;BME280;32907;41.412;2.164;2022-09-06T04:04:07;100558.03;;;28.91;59.10
47154;BME280;32907;41.412;2.164;2022-09-06T04:06:35;100474.38;;;28.22;59.07
47154;BME280;32907;41.412;2.164;2022-09-06T04:09:03;100558.34;;;28.89;58.88
47154;BME280;32907;41.412;2.164;2022-09-06T04:11:31;100554.78;;;28.89;59.17
47154;BME280;32907;41.412;2.164;2022-09-06T04:13:58;100441.91;;;28.15;59.39
47154;BME280;32907;41.412;2.164;2022-09-06T04:16:26;100559.97;;;28.90;58.82
47154;BME280;32907;41.412;2.164;2022-09-06T04:18:55;100553.66;;;28.90;59.32
47154;BME280;32907;41.412;2.164;2022-09-06T04:21:26;100499.72;;;28.52;59.00
47154;BME280;32907;41.412;2.164;2022-09-06T04:23:54;100557.56;;;28.89;59.23
47154;BME280;32907;41.412;2.164;2022-09-06T04:26:22;100567.78;;;28.88;59.10
47154;BME280;32907;41.412;2.164;2022-09-06T04:28:51;100535.28;;;28.69;59.52
47154;BME280;32907;41.412;2.164;2022-09-06T04:31:19;100525.56;;;28.60;59.30
47154;BME280;32907;41.412;2.164;2022-09-06T04:33:48;100505.81;;;28.46;59.61
47154;BME280;32907;41.412;2.164;2022-09-06T04:36:17;100565.63;;;28.82;59.38
47154;BME280;32907;41.412;2.164;2022-09-06T04:38:44;100571.94;;;28.82;59.62
47154;BME280;32907;41.412;2.164;2022-09-06T04:41:15;100567.59;;;28.81;59.64
47154;BME280;32907;41.412;2.164;2022-09-06T04:43:43;100433.44;;;27.96;59.26
47154;BME280;32907;41.412;2.164;2022-09-06T04:46:21;100459.13;;;28.12;59.17
47154;BME280;32907;41.412;2.164;2022-09-06T04:48:52;100564.47;;;28.83;59.09
47154;BME280;32907;41.412;2.164;2022-09-06T04:51:21;100560.56;;;28.84;59.38
47154;BME280;32907;41.412;2.164;2022-09-06T04:53:50;100566.88;;;28.84;58.99
47154;BME280;32907;41.412;2.164;2022-09-06T04:56:23;100534.75;;;28.64;58.90
47154;BME280;32907;41.412;2.164;2022-09-06T04:58:53;100568.81;;;28.84;59.07
47154;BME280;32907;41.412;2.164;2022-09-06T05:01:23;100575.94;;;28.85;59.28
47154;BME280;32907;41.412;2.164;2022-09-06T05:03:53;100547.94;;;28.70;59.16
47154;BME280;32907;41.412;2.164;2022-09-06T05:06:24;100575.94;;;28.85;58.89
47154;BME280;32907;41.412;2.164;2022-09-06T05:08:52;100569.28;;;28.86;59.36
47154;BME280;32907;41.412;2.164;2022-09-06T05:11:20;100496.31;;;28.31;59.25
47154;BME280;32907;41.412;2.164;2022-09-06T05:13:47;100579.78;;;28.80;59.21
47154;BME280;32907;41.412;2.164;2022-09-06T05:16:16;100581.38;;;28.81;59.21
47154;BME280;32907;41.412;2.164;2022-09-06T05:18:45;100439.69;;;27.69;58.77
47154;BME280;32907;41.412;2.164;2022-09-06T05:21:26;100405.34;;;27.54;59.08
47154;BME280;32907;41.412;2.164;2022-09-06T05:23:54;100354.50;;;27.39;58.79
47154;BME280;32907;41.412;2.164;2022-09-06T05:26:25;100532.94;;;28.56;58.38
47154;BME280;32907;41.412;2.164;2022-09-06T05:28:52;100307.28;;;27.13;58.39
47154;BME280;32907;41.412;2.164;2022-09-06T05:31:31;100531.88;;;28.60;58.44
47154;BME280;32907;41.412;2.164;2022-09-06T05:34:00;100519.38;;;28.51;58.35
47154;BME280;32907;41.412;2.164;2022-09-06T05:36:29;100351.53;;;27.44;58.62
47154;BME280;32907;41.412;2.164;2022-09-06T05:38:58;100401.66;;;27.74;58.41
47154;BME280;32907;41.412;2.164;2022-09-06T05:41:27;100228.25;;;26.64;57.87
47154;BME280;32907;41.412;2.164;2022-09-06T05:43:55;100572.78;;;28.70;58.00
47154;BME280;32907;41.412;2.164;2022-09-06T05:46:23;100481.28;;;28.16;58.37
47154;BME280;32907;41.412;2.164;2022-09-06T05:48:54;100583.44;;;28.84;58.14
47154;BME280;32907;41.412;2.164;2022-09-06T05:51:22;100596.06;;;28.85;58.02
47154;BME280;32907;41.412;2.164;2022-09-06T05:53:51;100593.66;;;28.84;57.97
47154;BME280;32907;41.412;2.164;2022-09-06T05:56:19;100567.09;;;28.51;58.27
47154;BME280;32907;41.412;2.164;2022-09-06T05:58:47;100606.22;;;28.81;58.32
47154;BME280;32907;41.412;2.164;2022-09-06T06:01:21;100600.69;;;28.81;58.46
47154;BME280;32907;41.412;2.164;2022-09-06T06:03:53;100546.41;;;28.45;58.14
47154;BME280;32907;41.412;2.164;2022-09-06T06:06:25;100577.28;;;28.63;58.43
47154;BME280;32907;41.412;2.164;2022-09-06T06:08:54;100609.34;;;28.80;58.68
47154;BME280;32907;41.412;2.164;2022-09-06T06:11:24;100523.41;;;28.29;58.19
47154;BME280;32907;41.412;2.164;2022-09-06T06:13:53;100584.50;;;28.67;58.49
47154;BME280;32907;41.412;2.164;2022-09-06T06:16:21;100606.91;;;28.78;58.43
47154;BME280;32907;41.412;2.164;2022-09-06T06:18:51;100549.88;;;28.42;58.17
47154;BME280;32907;41.412;2.164;2022-09-06T06:21:25;100618.06;;;28.82;58.49
47154;BME280;32907;41.412;2.164;2022-09-06T06:23:56;100575.56;;;28.58;58.65
47154;BME280;32907;41.412;2.164;2022-09-06T06:26:26;100462.03;;;27.92;58.82
47154;BME280;32907;41.412;2.164;2022-09-06T06:28:56;100295.97;;;26.69;58.57
47154;BME280;32907;41.412;2.164;2022-09-06T06:31:29;100341.44;;;27.12;58.92
47154;BME280;32907;41.412;2.164;2022-09-06T06:33:58;100623.94;;;28.80;58.97
47154;BME280;32907;41.412;2.164;2022-09-06T06:36:29;100337.38;;;26.97;58.89
47154;BME280;32907;41.412;2.164;2022-09-06T06:38:59;100463.53;;;27.89;58.91
47154;BME280;32907;41.412;2.164;2022-09-06T06:41:31;100497.72;;;28.12;58.96
47154;BME280;32907;41.412;2.164;2022-09-06T06:44:01;100366.88;;;27.33;58.88
47154;BME280;32907;41.412;2.164;2022-09-06T06:46:34;100445.84;;;27.78;58.67
47154;BME280;32907;41.412;2.164;2022-09-06T06:49:03;100299.44;;;26.90;58.67
47154;BME280;32907;41.412;2.164;2022-09-06T06:51:33;100524.13;;;28.26;58.26
47154;BME280;32907;41.412;2.164;2022-09-06T06:54:06;100444.25;;;27.77;58.89
47154;BME280;32907;41.412;2.164;2022-09-06T06:56:36;100481.06;;;28.09;58.92
47154;BME280;32907;41.412;2.164;2022-09-06T06:59:06;100400.63;;;27.54;58.38
47154;BME280;32907;41.412;2.164;2022-09-06T07:01:35;100452.53;;;27.77;58.32
47154;BME280;32907;41.412;2.164;2022-09-06T07:04:04;100596.19;;;28.89;58.30
47154;BME280;32907;41.412;2.164;2022-09-06T07:06:53;100533.97;;;28.51;58.75
47154;BME280;32907;41.412;2.164;2022-09-06T07:09:42;100529.16;;;28.48;58.39
47154;BME280;32907;41.412;2.164;2022-09-06T07:12:32;100579.66;;;28.77;58.39
47154;BME280;32907;41.412;2.164;2022-09-06T07:15:02;100472.31;;;28.19;58.34
47154;BME280;32907;41.412;2.164;2022-09-06T07:17:40;100280.97;;;26.78;58.14
47154;BME280;32907;41.412;2.164;2022-09-06T07:20:08;100266.19;;;26.83;58.46
47154;BME280;32907;41.412;2.164;2022-09-06T07:22:41;100515.69;;;28.47;58.41
47154;BME280;32907;41.412;2.164;2022-09-06T07:25:10;100577.19;;;28.87;58.56
47154;BME280;32907;41.412;2.164;2022-09-06T07:27:46;100565.19;;;28.80;58.04
47154;BME280;32907;41.412;2.164;2022-09-06T07:30:18;100319.19;;;27.17;57.86
47154;BME280;32907;41.412;2.164;2022-09-06T07:32:47;100585.72;;;28.94;58.09
47154;BME280;32907;41.412;2.164;2022-09-06T07:35:15;100390.72;;;27.66;57.65
47154;BME280;32907;41.412;2.164;2022-09-06T07:37:50;100292.22;;;27.10;58.00
47154;BME280;32907;41.412;2.164;2022-09-06T07:40:22;100241.78;;;26.82;58.53
47154;BME280;32907;41.412;2.164;2022-09-06T07:42:55;100486.09;;;28.19;58.26
47154;BME280;32907;41.412;2.164;2022-09-06T07:45:23;100575.94;;;28.85;58.39
47154;BME280;32907;41.412;2.164;2022-09-06T07:47:53;100594.59;;;28.88;58.15
47154;BME280;32907;41.412;2.164;2022-09-06T07:50:23;100558.03;;;28.79;58.63
47154;BME280;32907;41.412;2.164;2022-09-06T07:53:36;100601.44;;;29.06;58.14
47154;BME280;32907;41.412;2.164;2022-09-06T07:56:07;100597.53;;;29.07;58.08
47154;BME280;32907;41.412;2.164;2022-09-06T07:58:36;100538.63;;;28.75;57.98
47154;BME280;32907;41.412;2.164;2022-09-06T08:01:34;100583.00;;;29.10;56.98
47154;BME280;32907;41.412;2.164;2022-09-06T08:04:12;100585.31;;;29.08;57.34
47154;BME280;32907;41.412;2.164;2022-09-06T08:06:46;100581.75;;;29.08;57.34
47154;BME280;32907;41.412;2.164;2022-09-06T08:09:35;100576.84;;;29.01;57.70
47154;BME280;32907;41.412;2.164;2022-09-06T08:12:03;100587.28;;;29.08;57.85
47154;BME280;32907;41.412;2.164;2022-09-06T08:14:34;100487.81;;;28.36;57.86
47154;BME280;32907;41.412;2.164;2022-09-06T08:17:03;100447.41;;;28.15;57.97
47154;BME280;32907;41.412;2.164;2022-09-06T08:19:31;100559.38;;;28.97;58.03
47154;BME280;32907;41.412;2.164;2022-09-06T08:21:59;100587.84;;;29.13;57.70
47154;BME280;32907;41.412;2.164;2022-09-06T08:24:29;100571.53;;;29.08;57.76
47154;BME280;32907;41.412;2.164;2022-09-06T08:26:58;100567.78;;;28.88;57.46
47154;BME280;32907;41.412;2.164;2022-09-06T08:29:26;100587.72;;;29.10;57.72
47154;BME280;32907;41.412;2.164;2022-09-06T08:31:55;100572.03;;;28.98;57.69
47154;BME280;32907;41.412;2.164;2022-09-06T08:34:24;100406.00;;;28.00;57.20
47154;BME280;32907;41.412;2.164;2022-09-06T08:36:52;100523.50;;;28.85;57.41
47154;BME280;32907;41.412;2.164;2022-09-06T08:39:20;100590.53;;;29.25;57.15
47154;BME280;32907;41.412;2.164;2022-09-06T08:41:55;100590.91;;;29.24;57.70
47154;BME280;32907;41.412;2.164;2022-09-06T08:44:46;100599.63;;;29.26;57.07
47154;BME280;32907;41.412;2.164;2022-09-06T08:47:20;100595.97;;;29.22;57.97
47154;BME280;32907;41.412;2.164;2022-09-06T08:50:05;100601.84;;;29.20;57.68
47154;BME280;32907;41.412;2.164;2022-09-06T08:52:39;100594.69;;;29.19;62.88
47154;BME280;32907;41.412;2.164;2022-09-06T08:55:37;100591.84;;;29.16;59.04
47154;BME280;32907;41.412;2.164;2022-09-06T09:01:23;100576.31;;;29.11;58.38
47154;BME280;32907;41.412;2.164;2022-09-06T09:03:55;100578.75;;;29.13;58.82
47154;BME280;32907;41.412;2.164;2022-09-06T09:06:31;100542.47;;;28.86;58.83
47154;BME280;32907;41.412;2.164;2022-09-06T09:09:05;100577.03;;;29.08;58.99
47154;BME280;32907;41.412;2.164;2022-09-06T09:11:33;100561.78;;;28.98;58.89
47154;BME280;32907;41.412;2.164;2022-09-06T09:14:03;100614.00;;;29.32;58.29
47154;BME280;32907;41.412;2.164;2022-09-06T09:16:35;100508.78;;;28.65;58.56
47154;BME280;32907;41.412;2.164;2022-09-06T09:19:04;100609.38;;;29.36;58.78
47154;BME280;32907;41.412;2.164;2022-09-06T09:21:38;100494.84;;;28.61;58.66
47154;BME280;32907;41.412;2.164;2022-09-06T09:24:11;100606.94;;;29.34;58.50
47154;BME280;32907;41.412;2.164;2022-09-06T09:27:08;100619.72;;;29.39;58.68
47154;BME280;32907;41.412;2.164;2022-09-06T09:29:57;100615.00;;;29.39;59.09
47154;BME280;32907;41.412;2.164;2022-09-06T09:32:47;100603.38;;;29.34;59.11
47154;BME280;32907;41.412;2.164;2022-09-06T09:35:36;100614.19;;;29.39;59.14
47154;BME280;32907;41.412;2.164;2022-09-06T09:38:12;100566.00;;;29.08;58.74
47154;BME280;32907;41.412;2.164;2022-09-06T09:40:59;100579.66;;;29.17;58.70
47154;BME280;32907;41.412;2.164;2022-09-06T09:43:36;100602.84;;;29.28;57.81
47154;BME280;32907;41.412;2.164;2022-09-06T09:49:11;100603.31;;;29.30;58.44
47154;BME280;32907;41.412;2.164;2022-09-06T09:51:46;100608.91;;;29.34;58.36
47154;BME280;32907;41.412;2.164;2022-09-06T09:54:30;100601.63;;;29.41;59.56
47154;BME280;32907;41.412;2.164;2022-09-06T09:56:59;100569.84;;;29.19;58.63
47154;BME280;32907;41.412;2.164;2022-09-06T10:02:00;100452.88;;;28.68;57.90
47154;BME280;32907;41.412;2.164;2022-09-06T10:04:36;100536.47;;;29.24;58.02
47154;BME280;32907;41.412;2.164;2022-09-06T10:07:23;100545.66;;;29.29;57.44
47154;BME280;32907;41.412;2.164;2022-09-06T10:10:05;100579.22;;;29.59;57.52
47154;BME280;32907;41.412;2.164;2022-09-06T10:12:37;100560.72;;;29.47;57.83
47154;BME280;32907;41.412;2.164;2022-09-06T10:15:10;100512.31;;;29.21;57.58
47154;BME280;32907;41.412;2.164;2022-09-06T10:17:49;100577.59;;;29.58;57.44
47154;BME280;32907;41.412;2.164;2022-09-06T10:20:37;100545.75;;;29.48;56.50
47154;BME280;32907;41.412;2.164;2022-09-06T10:23:36;100526.50;;;29.36;56.71
47154;BME280;32907;41.412;2.164;2022-09-06T10:26:55;100477.84;;;29.15;56.27
47154;BME280;32907;41.412;2.164;2022-09-06T10:38:10;100560.59;;;29.71;56.63
47154;BME280;32907;41.412;2.164;2022-09-06T10:41:09;100548.81;;;29.74;56.66
47154;BME280;32907;41.412;2.164;2022-09-06T10:44:43;100549.72;;;29.78;56.04
47154;BME280;32907;41.412;2.164;2022-09-06T10:46:43;100496.50;;;29.50;55.97
47154;BME280;32907;41.412;2.164;2022-09-06T10:49:16;100360.94;;;28.64;55.84
47154;BME280;32907;41.412;2.164;2022-09-06T10:51:49;100447.53;;;29.19;56.09
47154;BME280;32907;41.412;2.164;2022-09-06T10:54:23;100532.59;;;29.89;55.44
47154;BME280;32907;41.412;2.164;2022-09-06T10:56:52;100538.28;;;29.96;55.65
47154;BME280;32907;41.412;2.164;2022-09-06T11:00:05;100505.13;;;29.80;55.03
47154;BME280;32907;41.412;2.164;2022-09-06T11:02:39;100454.78;;;29.55;55.30
47154;BME280;32907;41.412;2.164;2022-09-06T11:05:19;100527.84;;;30.05;55.66
47154;BME280;32907;41.412;2.164;2022-09-06T11:08:22;100525.78;;;30.02;55.51
47154;BME280;32907;41.412;2.164;2022-09-06T11:11:42;100512.69;;;29.99;55.30
47154;BME280;32907;41.412;2.164;2022-09-06T11:14:12;100520.47;;;30.09;55.13
47154;BME280;32907;41.412;2.164;2022-09-06T11:16:52;100528.41;;;30.11;54.56
47154;BME280;32907;41.412;2.164;2022-09-06T11:19:30;100459.13;;;29.72;54.63
47154;BME280;32907;41.412;2.164;2022-09-06T11:22:06;100518.19;;;30.15;54.61
47154;BME280;32907;41.412;2.164;2022-09-06T11:27:39;100466.66;;;29.91;53.63
47154;BME280;32907;41.412;2.164;2022-09-06T11:30:13;100511.97;;;30.18;54.11
47154;BME280;32907;41.412;2.164;2022-09-06T11:32:49;100478.34;;;30.00;53.55
47154;BME280;32907;41.412;2.164;2022-09-06T11:35:24;100495.28;;;30.14;53.32
47154;BME280;32907;41.412;2.164;2022-09-06T11:40:56;100504.91;;;30.20;52.66
47154;BME280;32907;41.412;2.164;2022-09-06T11:51:45;100493.31;;;30.15;52.85
47154;BME280;32907;41.412;2.164;2022-09-06T11:54:19;100504.97;;;30.24;52.32
47154;BME280;32907;41.412;2.164;2022-09-06T11:57:12;100515.69;;;30.25;51.91
47154;BME280;32907;41.412;2.164;2022-09-06T11:59:57;100452.34;;;29.85;52.08
47154;BME280;32907;41.412;2.164;2022-09-06T12:02:36;100490.03;;;30.09;52.30
47154;BME280;32907;41.412;2.164;2022-09-06T12:07:38;100509.00;;;30.26;53.03
47154;BME280;32907;41.412;2.164;2022-09-06T12:12:57;100451.41;;;29.97;52.25
47154;BME280;32907;41.412;2.164;2022-09-06T12:15:41;100525.75;;;30.33;52.40
47154;BME280;32907;41.412;2.164;2022-09-06T12:21:35;100495.31;;;30.33;52.94
47154;BME280;32907;41.412;2.164;2022-09-06T12:24:06;100485.75;;;30.31;52.35
47154;BME280;32907;41.412;2.164;2022-09-06T12:26:49;100500.06;;;30.33;52.35
47154;BME280;32907;41.412;2.164;2022-09-06T12:29:26;100458.69;;;30.05;52.87
47154;BME280;32907;41.412;2.164;2022-09-06T12:31:58;100502.03;;;30.32;52.55
47154;BME280;32907;41.412;2.164;2022-09-06T12:34:33;100300.25;;;28.95;53.04
47154;BME280;32907;41.412;2.164;2022-09-06T12:37:07;100398.31;;;29.52;53.32
47154;BME280;32907;41.412;2.164;2022-09-06T12:39:37;100254.22;;;28.68;53.38
47154;BME280;32907;41.412;2.164;2022-09-06T12:42:10;100395.50;;;29.68;53.77
47154;BME280;32907;41.412;2.164;2022-09-06T12:44:41;100325.94;;;29.31;53.33
47154;BME280;32907;41.412;2.164;2022-09-06T12:47:29;100497.34;;;30.36;53.51
47154;BME280;32907;41.412;2.164;2022-09-06T12:50:24;100493.34;;;30.34;53.42
47154;BME280;32907;41.412;2.164;2022-09-06T12:52:58;100430.66;;;29.87;53.70
47154;BME280;32907;41.412;2.164;2022-09-06T12:55:31;100498.94;;;30.38;53.41
47154;BME280;32907;41.412;2.164;2022-09-06T12:58:04;100474.63;;;30.27;53.69
47154;BME280;32907;41.412;2.164;2022-09-06T13:00:36;100436.94;;;30.03;53.47
47154;BME280;32907;41.412;2.164;2022-09-06T13:05:52;100253.34;;;28.80;53.08
47154;BME280;32907;41.412;2.164;2022-09-06T13:11:03;100333.16;;;29.36;53.06
47154;BME280;32907;41.412;2.164;2022-09-06T13:13:36;100464.81;;;30.30;53.20
47154;BME280;32907;41.412;2.164;2022-09-06T13:16:04;100475.00;;;30.45;52.73
47154;BME280;32907;41.412;2.164;2022-09-06T13:18:36;100434.59;;;30.21;53.33
47154;BME280;32907;41.412;2.164;2022-09-06T13:21:09;100158.41;;;28.49;52.79
47154;BME280;32907;41.412;2.164;2022-09-06T13:23:48;100343.28;;;29.63;52.65
47154;BME280;32907;41.412;2.164;2022-09-06T13:26:37;100413.41;;;30.10;52.23
47154;BME280;32907;41.412;2.164;2022-09-06T13:32:02;100463.56;;;30.47;52.04
47154;BME280;32907;41.412;2.164;2022-09-06T13:34:32;100450.03;;;30.42;52.32
47154;BME280;32907;41.412;2.164;2022-09-06T13:37:04;100209.09;;;28.92;52.34
47154;BME280;32907;41.412;2.164;2022-09-06T13:39:39;100433.56;;;30.29;52.17
47154;BME280;32907;41.412;2.164;2022-09-06T13:42:09;100255.66;;;29.29;52.04
47154;BME280;32907;41.412;2.164;2022-09-06T13:44:38;100230.94;;;29.16;52.03
47154;BME280;32907;41.412;2.164;2022-09-06T13:47:06;100421.81;;;30.32;52.08
47154;BME280;32907;41.412;2.164;2022-09-06T13:49:35;100434.72;;;30.48;51.41
47154;BME280;32907;41.412;2.164;2022-09-06T13:52:05;100284.75;;;29.42;50.03
47154;BME280;32907;41.412;2.164;2022-09-06T13:54:35;100424.13;;;30.50;50.94
47154;BME280;32907;41.412;2.164;2022-09-06T13:57:03;100370.91;;;30.18;51.38
47154;BME280;32907;41.412;2.164;2022-09-06T13:59:31;100412.91;;;30.43;51.15
47154;BME280;32907;41.412;2.164;2022-09-06T14:02:11;100417.56;;;30.39;50.97
47154;BME280;32907;41.412;2.164;2022-09-06T14:04:42;100393.53;;;30.43;51.45
47154;BME280;32907;41.412;2.164;2022-09-06T14:07:10;100403.00;;;30.42;51.80
47154;BME280;32907;41.412;2.164;2022-09-06T14:09:39;100406.72;;;30.49;51.33
47154;BME280;32907;41.412;2.164;2022-09-06T14:12:07;100362.41;;;30.26;51.70
47154;BME280;32907;41.412;2.164;2022-09-06T14:14:37;100264.47;;;29.69;51.74
47154;BME280;32907;41.412;2.164;2022-09-06T14:17:06;100393.88;;;30.60;51.55
47154;BME280;32907;41.412;2.164;2022-09-06T14:19:35;100370.75;;;30.49;51.24
47154;BME280;32907;41.412;2.164;2022-09-06T14:22:04;100398.03;;;30.70;50.96
47154;BME280;32907;41.412;2.164;2022-09-06T14:24:34;100135.16;;;29.01;50.99
47154;BME280;32907;41.412;2.164;2022-09-06T14:27:04;100113.53;;;28.87;50.64
47154;BME280;32907;41.412;2.164;2022-09-06T14:29:34;100354.16;;;30.49;51.38
47154;BME280;32907;41.412;2.164;2022-09-06T14:32:05;100347.72;;;30.45;51.29
47154;BME280;32907;41.412;2.164;2022-09-06T14:34:37;100368.91;;;30.57;50.92
47154;BME280;32907;41.412;2.164;2022-09-06T14:37:10;100374.38;;;30.53;51.25
47154;BME280;32907;41.412;2.164;2022-09-06T14:39:40;100391.28;;;30.68;51.50
47154;BME280;32907;41.412;2.164;2022-09-06T14:42:08;100345.63;;;30.39;51.70
47154;BME280;32907;41.412;2.164;2022-09-06T14:44:36;100379.81;;;30.69;51.88
47154;BME280;32907;41.412;2.164;2022-09-06T14:47:04;100388.94;;;30.70;51.78
47154;BME280;32907;41.412;2.164;2022-09-06T14:49:36;100294.34;;;30.02;51.60